createdAt,value
2023-07-31T00:00:34.240Z,4.00
2023-07-31T00:01:34.324Z,3.90
2023-07-31T00:02:34.274Z,4.30
2023-07-31T00:03:34.236Z,4.30
2023-07-31T00:04:34.656Z,3.10
2023-07-31T00:05:34.174Z,4.10
2023-07-31T00:06:34.178Z,3.50
2023-07-31T00:07:34.162Z,4.50
2023-07-31T00:08:34.156Z,3.30
2023-07-31T00:09:34.149Z,4.60
2023-07-31T00:10:34.110Z,3.00
2023-07-31T00:11:34.144Z,5.00
2023-07-31T00:12:34.227Z,5.20
2023-07-31T00:13:34.071Z,3.40
2023-07-31T00:14:34.045Z,3.10
2023-07-31T00:15:34.048Z,3.50
2023-07-31T00:16:34.078Z,3.50
2023-07-31T00:17:34.070Z,3.50
2023-07-31T00:18:34.025Z,3.40
2023-07-31T00:19:33.997Z,2.80
2023-07-31T00:20:33.971Z,5.30
2023-07-31T00:21:33.971Z,4.40
2023-07-31T00:22:33.934Z,4.50
2023-07-31T00:23:33.951Z,3.40
2023-07-31T00:24:33.921Z,3.60
2023-07-31T00:25:33.908Z,4.60
2023-07-31T00:26:33.910Z,3.80
2023-07-31T00:27:33.899Z,3.80
2023-07-31T00:28:33.958Z,4.10
2023-07-31T00:29:33.900Z,3.90
2023-07-31T00:30:34.126Z,4.10
2023-07-31T00:31:33.861Z,2.80
2023-07-31T00:32:33.859Z,3.70
2023-07-31T00:33:33.807Z,3.80
2023-07-31T00:34:33.786Z,3.80
2023-07-31T00:35:33.817Z,2.60
2023-07-31T00:36:33.761Z,2.70
2023-07-31T00:37:33.747Z,4.20
2023-07-31T00:38:33.739Z,5.10
2023-07-31T00:39:33.739Z,3.90
2023-07-31T00:40:33.718Z,3.70
2023-07-31T00:41:33.689Z,2.90
2023-07-31T00:42:33.993Z,3.30
2023-07-31T00:43:33.688Z,3.50
2023-07-31T00:44:33.661Z,4.70
2023-07-31T00:45:33.750Z,3.30
2023-07-31T00:46:33.635Z,3.90
2023-07-31T00:47:33.641Z,3.80
2023-07-31T00:48:33.634Z,5.10
2023-07-31T00:49:33.598Z,4.90
2023-07-31T00:50:33.611Z,3.30
2023-07-31T00:51:33.556Z,8.00
2023-07-31T00:52:33.559Z,9.40
2023-07-31T00:53:33.565Z,3.90
2023-07-31T00:54:33.542Z,4.70
2023-07-31T00:55:33.524Z,3.30
2023-07-31T00:56:33.559Z,8.30
2023-07-31T00:57:33.487Z,3.40
2023-07-31T00:58:33.477Z,3.00
2023-07-31T00:59:33.464Z,3.30
2023-07-31T01:00:33.468Z,4.50
2023-07-31T01:01:33.446Z,2.70
2023-07-31T01:02:33.547Z,3.70
2023-07-31T01:03:33.423Z,3.50
2023-07-31T01:04:33.394Z,15.70
2023-07-31T01:05:33.395Z,13.10
2023-07-31T01:06:33.391Z,4.20
2023-07-31T01:07:33.343Z,3.40
2023-07-31T01:08:33.337Z,18.30
2023-07-31T01:09:33.314Z,7.20
2023-07-31T01:10:33.334Z,7.00
2023-07-31T01:11:33.302Z,4.60
2023-07-31T01:12:33.479Z,3.90
2023-07-31T01:13:33.262Z,3.70
2023-07-31T01:14:33.304Z,4.40
2023-07-31T01:15:33.255Z,4.50
2023-07-31T01:16:33.302Z,3.70
2023-07-31T01:17:33.284Z,3.20
2023-07-31T01:18:33.196Z,3.10
2023-07-31T01:19:33.189Z,4.70
2023-07-31T01:20:33.243Z,9.40
2023-07-31T01:21:33.178Z,4.70
2023-07-31T01:22:34.017Z,3.40
2023-07-31T01:23:33.132Z,3.10
2023-07-31T01:24:33.133Z,3.30
2023-07-31T01:25:33.112Z,5.30
2023-07-31T01:26:33.137Z,3.20
2023-07-31T01:27:33.086Z,3.80
2023-07-31T01:28:33.158Z,3.50
2023-07-31T01:29:33.058Z,3.70
2023-07-31T01:30:33.050Z,3.10
2023-07-31T01:31:33.038Z,3.20
2023-07-31T01:32:33.052Z,3.30
2023-07-31T01:33:32.997Z,2.90
2023-07-31T01:34:32.993Z,4.80
2023-07-31T01:35:32.975Z,4.80
2023-07-31T01:36:32.969Z,2.80
2023-07-31T01:37:32.968Z,4.20
2023-07-31T01:38:32.936Z,3.50
2023-07-31T01:39:32.927Z,3.20
2023-07-31T01:40:32.909Z,3.50
2023-07-31T01:41:32.978Z,3.60
2023-07-31T01:42:32.893Z,4.10
2023-07-31T01:43:32.865Z,3.80
2023-07-31T01:44:32.852Z,3.50
2023-07-31T01:45:32.831Z,3.60
2023-07-31T01:46:32.907Z,3.70
2023-07-31T01:47:32.938Z,4.10
2023-07-31T01:48:33.517Z,2.90
2023-07-31T01:49:32.789Z,5.20
2023-07-31T01:50:32.796Z,3.40
2023-07-31T01:51:32.768Z,3.40
2023-07-31T01:52:32.757Z,3.20
2023-07-31T01:53:32.736Z,3.50
2023-07-31T01:54:32.728Z,3.30
2023-07-31T01:55:32.724Z,2.70
2023-07-31T01:56:32.697Z,4.90
2023-07-31T01:57:32.666Z,4.80
2023-07-31T01:58:32.676Z,4.50
2023-07-31T01:59:32.671Z,4.50
2023-07-31T02:00:32.663Z,3.60
2023-07-31T02:01:32.664Z,4.20
2023-07-31T02:02:32.676Z,3.60
2023-07-31T02:03:32.761Z,3.40
2023-07-31T02:04:32.628Z,2.80
2023-07-31T02:05:32.619Z,3.80
2023-07-31T02:06:32.590Z,3.30
2023-07-31T02:07:32.541Z,5.00
2023-07-31T02:08:32.548Z,3.30
2023-07-31T02:09:32.522Z,4.60
2023-07-31T02:10:32.549Z,4.20
2023-07-31T02:11:32.504Z,3.30
2023-07-31T02:12:33.773Z,3.30
2023-07-31T02:13:32.476Z,3.50
2023-07-31T02:14:32.475Z,4.30
2023-07-31T02:15:32.434Z,3.90
2023-07-31T02:16:32.440Z,3.50
2023-07-31T02:17:32.432Z,3.30
2023-07-31T02:18:32.431Z,3.60
2023-07-31T02:19:32.389Z,3.10
2023-07-31T02:20:32.376Z,4.30
2023-07-31T02:21:32.357Z,3.40
2023-07-31T02:22:32.352Z,3.50
2023-07-31T02:23:32.351Z,3.60
2023-07-31T02:24:32.324Z,3.20
2023-07-31T02:25:32.344Z,3.70
2023-07-31T02:26:32.322Z,3.50
2023-07-31T02:27:32.275Z,3.50
2023-07-31T02:28:32.320Z,4.10
2023-07-31T02:29:32.270Z,3.60
2023-07-31T02:30:32.238Z,3.80
2023-07-31T02:31:32.320Z,3.40
2023-07-31T02:32:32.258Z,2.80
2023-07-31T02:33:32.199Z,3.20
2023-07-31T02:34:32.211Z,4.60
2023-07-31T02:35:32.178Z,3.70
2023-07-31T02:36:32.179Z,3.30
2023-07-31T02:37:32.139Z,4.10
2023-07-31T02:38:32.177Z,4.60
2023-07-31T02:39:32.134Z,3.80
2023-07-31T02:40:32.112Z,3.70
2023-07-31T02:41:32.137Z,4.20
2023-07-31T02:42:32.997Z,3.70
2023-07-31T02:43:32.056Z,3.10
2023-07-31T02:44:32.091Z,3.70
2023-07-31T02:45:32.048Z,4.10
2023-07-31T02:46:32.048Z,4.40
2023-07-31T02:47:32.039Z,4.30
2023-07-31T02:48:32.014Z,3.20
2023-07-31T02:49:31.971Z,4.00
2023-07-31T02:50:31.995Z,4.90
2023-07-31T02:51:31.958Z,3.90
2023-07-31T02:52:32.025Z,3.50
2023-07-31T02:53:31.934Z,2.70
2023-07-31T02:54:31.929Z,4.30
2023-07-31T02:55:31.898Z,4.50
2023-07-31T02:56:31.949Z,4.80
2023-07-31T02:57:31.869Z,3.40
2023-07-31T02:58:31.879Z,3.50
2023-07-31T02:59:31.854Z,3.30
2023-07-31T03:00:31.854Z,3.70
2023-07-31T03:01:31.875Z,3.40
2023-07-31T03:02:31.891Z,4.00
2023-07-31T03:03:31.898Z,4.40
2023-07-31T03:04:31.787Z,3.10
2023-07-31T03:05:31.764Z,4.40
2023-07-31T03:06:31.807Z,3.10
2023-07-31T03:07:31.737Z,4.20
2023-07-31T03:08:31.750Z,3.90
2023-07-31T03:09:31.717Z,3.50
2023-07-31T03:10:31.756Z,3.60
2023-07-31T03:11:31.682Z,3.90
2023-07-31T03:12:31.673Z,5.10
2023-07-31T03:13:31.682Z,3.70
2023-07-31T03:14:31.660Z,4.00
2023-07-31T03:15:31.675Z,4.60
2023-07-31T03:16:31.621Z,5.90
2023-07-31T03:17:31.668Z,3.50
2023-07-31T03:18:31.607Z,4.40
2023-07-31T03:19:31.597Z,4.60
2023-07-31T03:20:31.611Z,4.00
2023-07-31T03:21:31.550Z,3.10
2023-07-31T03:22:31.548Z,4.00
2023-07-31T03:23:31.545Z,3.60
2023-07-31T03:24:31.520Z,3.80
2023-07-31T03:25:31.510Z,4.30
2023-07-31T03:26:31.523Z,5.10
2023-07-31T03:27:31.482Z,3.60
2023-07-31T03:28:31.575Z,4.90
2023-07-31T03:29:31.445Z,4.40
2023-07-31T03:30:31.456Z,3.90
2023-07-31T03:31:31.476Z,3.40
2023-07-31T03:32:31.513Z,3.50
2023-07-31T03:33:31.401Z,3.30
2023-07-31T03:34:31.413Z,4.40
2023-07-31T03:35:31.365Z,4.40
2023-07-31T03:36:31.367Z,5.00
2023-07-31T03:37:31.362Z,3.60
2023-07-31T03:38:31.345Z,4.00
2023-07-31T03:39:31.324Z,3.60
2023-07-31T03:40:31.302Z,4.60
2023-07-31T03:41:31.304Z,4.00
2023-07-31T03:42:31.283Z,4.70
2023-07-31T03:43:31.293Z,4.40
2023-07-31T03:44:31.254Z,4.40
2023-07-31T03:45:31.243Z,4.20
2023-07-31T03:46:31.257Z,3.50
2023-07-31T03:47:31.562Z,4.40
2023-07-31T03:48:31.229Z,4.10
2023-07-31T03:49:31.218Z,4.80
2023-07-31T03:50:31.168Z,4.90
2023-07-31T03:51:31.203Z,5.70
2023-07-31T03:52:31.195Z,3.70
2023-07-31T03:53:31.134Z,3.20
2023-07-31T03:54:31.128Z,5.10
2023-07-31T03:55:31.096Z,4.70
2023-07-31T03:56:32.264Z,5.10
2023-07-31T03:57:31.086Z,4.00
2023-07-31T03:58:31.089Z,3.90
2023-07-31T03:59:31.051Z,5.30
2023-07-31T04:00:31.044Z,5.10
2023-07-31T04:01:31.031Z,5.60
2023-07-31T04:02:31.093Z,5.20
2023-07-31T04:03:30.990Z,4.80
2023-07-31T04:04:32.504Z,3.80
2023-07-31T04:05:31.098Z,5.60
2023-07-31T04:06:30.974Z,6.20
2023-07-31T04:07:30.947Z,6.60
2023-07-31T04:08:30.963Z,3.70
2023-07-31T04:09:30.935Z,4.20
2023-07-31T04:10:30.923Z,4.70
2023-07-31T04:11:30.929Z,4.70
2023-07-31T04:12:30.896Z,3.20
2023-07-31T04:13:30.859Z,4.30
2023-07-31T04:14:30.873Z,4.60
2023-07-31T04:15:30.843Z,5.90
2023-07-31T04:16:30.874Z,3.60
2023-07-31T04:17:30.824Z,4.60
2023-07-31T04:18:30.819Z,5.30
2023-07-31T04:19:30.804Z,5.10
2023-07-31T04:20:30.780Z,5.70
2023-07-31T04:21:30.756Z,9.30
2023-07-31T04:22:30.784Z,5.10
2023-07-31T04:23:31.338Z,4.40
2023-07-31T04:24:30.742Z,4.40
2023-07-31T04:25:30.732Z,5.10
2023-07-31T04:26:30.728Z,5.10
2023-07-31T04:27:30.686Z,6.90
2023-07-31T04:28:30.736Z,5.30
2023-07-31T04:29:30.642Z,4.00
2023-07-31T04:30:30.679Z,3.80
2023-07-31T04:31:30.736Z,4.50
2023-07-31T04:32:30.665Z,4.80
2023-07-31T04:33:30.598Z,5.10
2023-07-31T04:34:30.601Z,3.90
2023-07-31T04:35:30.577Z,4.30
2023-07-31T04:36:30.591Z,4.20
2023-07-31T04:37:30.555Z,4.80
2023-07-31T04:38:30.565Z,5.00
2023-07-31T04:39:30.535Z,4.60
2023-07-31T04:40:30.525Z,4.30
2023-07-31T04:41:30.486Z,5.00
2023-07-31T04:42:30.522Z,4.80
2023-07-31T04:43:30.510Z,3.80
2023-07-31T04:44:30.456Z,4.60
2023-07-31T04:45:30.448Z,4.30
2023-07-31T04:46:30.517Z,4.10
2023-07-31T04:47:30.472Z,5.90
2023-07-31T04:48:30.439Z,5.70
2023-07-31T04:49:30.419Z,4.90
2023-07-31T04:50:30.396Z,3.90
2023-07-31T04:51:30.379Z,5.70
2023-07-31T04:52:30.368Z,4.40
2023-07-31T04:53:30.367Z,6.60
2023-07-31T04:54:30.338Z,5.80
2023-07-31T04:55:30.425Z,6.00
2023-07-31T04:56:30.300Z,4.10
2023-07-31T04:57:30.298Z,5.90
2023-07-31T04:58:30.265Z,5.00
2023-07-31T04:59:30.276Z,5.30
2023-07-31T05:00:30.251Z,4.80
2023-07-31T05:01:30.936Z,6.30
2023-07-31T05:02:30.250Z,4.00
2023-07-31T05:03:30.247Z,4.00
2023-07-31T05:04:30.175Z,5.10
2023-07-31T05:05:30.194Z,4.90
2023-07-31T05:06:30.182Z,6.20
2023-07-31T05:07:30.162Z,4.60
2023-07-31T05:08:30.132Z,3.90
2023-07-31T05:09:30.131Z,4.90
2023-07-31T05:10:30.119Z,4.70
2023-07-31T05:11:30.155Z,4.40
2023-07-31T05:12:30.094Z,4.80
2023-07-31T05:13:30.071Z,5.80
2023-07-31T05:14:30.057Z,3.70
2023-07-31T05:15:30.067Z,4.90
2023-07-31T05:16:30.095Z,4.60
2023-07-31T05:17:30.047Z,3.70
2023-07-31T05:18:30.011Z,4.00
2023-07-31T05:19:30.010Z,3.60
2023-07-31T05:20:30.953Z,3.70
2023-07-31T05:21:30.359Z,4.40
2023-07-31T05:22:29.941Z,4.00
2023-07-31T05:23:29.944Z,3.80
2023-07-31T05:24:29.905Z,3.90
2023-07-31T05:25:29.927Z,4.60
2023-07-31T05:26:29.897Z,5.30
2023-07-31T05:27:29.897Z,4.30
2023-07-31T05:28:29.948Z,3.80
2023-07-31T05:29:29.870Z,5.30
2023-07-31T05:30:29.836Z,4.40
2023-07-31T05:31:29.846Z,3.70
2023-07-31T05:32:29.863Z,6.40
2023-07-31T05:33:29.873Z,4.40
2023-07-31T05:34:29.791Z,4.00
2023-07-31T05:35:29.772Z,6.50
2023-07-31T05:36:29.791Z,3.60
2023-07-31T05:37:29.767Z,5.10
2023-07-31T05:38:29.757Z,5.30
2023-07-31T05:39:29.809Z,4.40
2023-07-31T05:40:29.722Z,4.60
2023-07-31T05:41:29.719Z,4.60
2023-07-31T05:42:29.680Z,4.10
2023-07-31T05:43:29.678Z,4.20
2023-07-31T05:44:29.648Z,4.40
2023-07-31T05:45:29.656Z,3.60
2023-07-31T05:46:29.673Z,6.40
2023-07-31T05:47:29.626Z,3.60
2023-07-31T05:48:29.614Z,4.50
2023-07-31T05:49:29.600Z,3.90
2023-07-31T05:50:29.568Z,5.40
2023-07-31T05:51:29.576Z,4.00
2023-07-31T05:52:29.744Z,4.30
2023-07-31T05:53:29.555Z,4.10
2023-07-31T05:54:29.533Z,4.90
2023-07-31T05:55:29.526Z,4.00
2023-07-31T05:56:29.482Z,5.30
2023-07-31T05:57:29.508Z,3.90
2023-07-31T05:58:29.468Z,6.40
2023-07-31T05:59:29.473Z,4.00
2023-07-31T06:00:29.601Z,4.30
2023-07-31T06:01:29.483Z,5.20
2023-07-31T06:02:29.541Z,4.00
2023-07-31T06:03:29.436Z,5.50
2023-07-31T06:04:29.494Z,4.40
2023-07-31T06:05:29.401Z,4.60
2023-07-31T06:06:29.416Z,5.30
2023-07-31T06:07:29.369Z,4.50
2023-07-31T06:08:29.325Z,5.50
2023-07-31T06:09:29.349Z,5.00
2023-07-31T06:10:29.312Z,6.20
2023-07-31T06:11:29.295Z,5.70
2023-07-31T06:12:29.318Z,4.80
2023-07-31T06:13:29.270Z,6.30
2023-07-31T06:14:29.241Z,4.60
2023-07-31T06:15:29.244Z,4.30
2023-07-31T06:16:29.276Z,3.00
2023-07-31T06:17:29.261Z,4.00
2023-07-31T06:18:29.199Z,4.70
2023-07-31T06:19:29.216Z,4.40
2023-07-31T06:20:29.172Z,5.10
2023-07-31T06:21:29.196Z,4.30
2023-07-31T06:22:29.161Z,5.20
2023-07-31T06:23:29.147Z,5.10
2023-07-31T06:24:29.133Z,5.00
2023-07-31T06:25:29.137Z,5.20
2023-07-31T06:26:29.125Z,6.40
2023-07-31T06:27:29.101Z,5.80
2023-07-31T06:28:29.116Z,5.00
2023-07-31T06:29:29.058Z,3.30
2023-07-31T06:30:29.047Z,3.40
2023-07-31T06:31:29.125Z,4.30
2023-07-31T06:32:29.157Z,5.20
2023-07-31T06:33:29.016Z,4.50
2023-07-31T06:34:28.983Z,4.20
2023-07-31T06:35:28.990Z,5.30
2023-07-31T06:36:28.989Z,7.70
2023-07-31T06:37:28.957Z,6.90
2023-07-31T06:38:28.932Z,6.10
2023-07-31T06:39:28.920Z,6.50
2023-07-31T06:40:28.902Z,4.50
2023-07-31T06:41:28.910Z,4.80
2023-07-31T06:42:28.908Z,4.70
2023-07-31T06:43:29.711Z,4.90
2023-07-31T06:44:28.861Z,4.40
2023-07-31T06:45:28.887Z,5.10
2023-07-31T06:46:28.839Z,4.00
2023-07-31T06:47:28.875Z,4.60
2023-07-31T06:48:28.815Z,4.50
2023-07-31T06:49:28.797Z,8.10
2023-07-31T06:50:28.782Z,6.30
2023-07-31T06:51:28.789Z,5.50
2023-07-31T06:52:28.746Z,5.80
2023-07-31T06:53:28.767Z,4.40
2023-07-31T06:54:28.721Z,5.70
2023-07-31T06:55:28.727Z,5.70
2023-07-31T06:56:28.700Z,5.00
2023-07-31T06:57:28.714Z,4.30
2023-07-31T06:58:28.711Z,4.70
2023-07-31T06:59:28.679Z,4.30
2023-07-31T07:00:28.670Z,4.10
2023-07-31T07:01:28.703Z,3.40
2023-07-31T07:02:28.723Z,5.50
2023-07-31T07:03:28.767Z,4.20
2023-07-31T07:04:28.714Z,3.80
2023-07-31T07:05:28.932Z,2.90
2023-07-31T07:06:28.722Z,5.90
2023-07-31T07:07:28.856Z,4.50
2023-07-31T07:08:28.657Z,4.00
2023-07-31T07:09:28.610Z,4.80
2023-07-31T07:10:28.630Z,3.70
2023-07-31T07:11:28.522Z,4.90
2023-07-31T07:12:28.517Z,4.60
2023-07-31T07:13:28.483Z,4.50
2023-07-31T07:14:28.453Z,6.30
2023-07-31T07:15:28.457Z,4.50
2023-07-31T07:16:28.467Z,5.70
2023-07-31T07:17:28.485Z,4.00
2023-07-31T07:18:28.408Z,4.00
2023-07-31T07:19:28.426Z,4.70
2023-07-31T07:20:28.386Z,3.90
2023-07-31T07:21:28.391Z,7.10
2023-07-31T07:22:28.355Z,3.80
2023-07-31T07:23:28.361Z,5.30
2023-07-31T07:24:28.328Z,5.90
2023-07-31T07:25:28.338Z,6.30
2023-07-31T07:26:28.313Z,5.30
2023-07-31T07:27:28.288Z,4.90
2023-07-31T07:28:28.307Z,4.40
2023-07-31T07:29:28.275Z,4.10
2023-07-31T07:30:28.243Z,6.90
2023-07-31T07:31:28.362Z,5.00
2023-07-31T07:32:28.272Z,4.40
2023-07-31T07:33:28.229Z,5.20
2023-07-31T07:34:28.215Z,3.50
2023-07-31T07:35:28.205Z,4.50
2023-07-31T07:36:28.168Z,4.00
2023-07-31T07:37:28.154Z,5.80
2023-07-31T07:38:28.188Z,3.60
2023-07-31T07:39:28.136Z,6.40
2023-07-31T07:40:28.112Z,4.40
2023-07-31T07:41:28.122Z,4.40
2023-07-31T07:42:28.092Z,4.50
2023-07-31T07:43:28.097Z,5.10
2023-07-31T07:44:28.077Z,5.30
2023-07-31T07:45:28.145Z,6.20
2023-07-31T07:46:28.080Z,5.00
2023-07-31T07:47:29.408Z,6.00
2023-07-31T07:48:28.182Z,6.10
2023-07-31T07:49:28.272Z,4.70
2023-07-31T07:50:28.489Z,4.30
2023-07-31T07:51:27.973Z,4.70
2023-07-31T07:52:27.955Z,6.20
2023-07-31T07:53:27.973Z,3.90
2023-07-31T07:54:27.973Z,4.40
2023-07-31T07:55:27.949Z,4.20
2023-07-31T07:56:27.939Z,4.90
2023-07-31T07:57:27.896Z,5.70
2023-07-31T07:58:27.890Z,4.40
2023-07-31T07:59:27.901Z,4.70
2023-07-31T08:00:27.895Z,5.00
2023-07-31T08:01:27.852Z,4.20
2023-07-31T08:02:27.891Z,5.20
2023-07-31T08:03:27.915Z,4.30
2023-07-31T08:04:27.789Z,3.50
2023-07-31T08:05:27.804Z,6.00
2023-07-31T08:06:27.775Z,3.90
2023-07-31T08:07:27.770Z,6.00
2023-07-31T08:08:27.758Z,4.30
2023-07-31T08:09:27.735Z,4.70
2023-07-31T08:10:27.713Z,6.10
2023-07-31T08:11:27.706Z,4.10
2023-07-31T08:12:27.715Z,4.40
2023-07-31T08:13:27.689Z,4.20
2023-07-31T08:14:27.660Z,5.20
2023-07-31T08:15:27.675Z,3.80
2023-07-31T08:16:27.688Z,5.10
2023-07-31T08:17:27.687Z,4.00
2023-07-31T08:18:27.712Z,4.70
2023-07-31T08:19:27.722Z,4.70
2023-07-31T08:20:27.619Z,4.30
2023-07-31T08:21:27.583Z,4.80
2023-07-31T08:22:27.558Z,4.00
2023-07-31T08:23:27.569Z,3.20
2023-07-31T08:24:27.542Z,3.70
2023-07-31T08:25:27.558Z,4.90
2023-07-31T08:26:27.519Z,4.10
2023-07-31T08:27:27.538Z,3.80
2023-07-31T08:28:27.500Z,4.70
2023-07-31T08:29:27.479Z,4.30
2023-07-31T08:30:27.481Z,3.40
2023-07-31T08:31:27.475Z,5.00
2023-07-31T08:32:27.483Z,3.60
2023-07-31T08:33:27.427Z,3.90
2023-07-31T08:34:27.405Z,4.50
2023-07-31T08:35:27.410Z,5.40
2023-07-31T08:36:30.351Z,3.70
2023-07-31T08:37:27.434Z,4.00
2023-07-31T08:38:27.355Z,3.80
2023-07-31T08:39:27.340Z,5.10
2023-07-31T08:40:27.325Z,3.80
2023-07-31T08:41:27.317Z,3.30
2023-07-31T08:42:29.343Z,4.20
2023-07-31T08:43:27.306Z,4.70
2023-07-31T08:44:27.278Z,3.60
2023-07-31T08:45:27.284Z,3.80
2023-07-31T08:46:27.298Z,4.10
2023-07-31T08:47:27.293Z,5.00
2023-07-31T08:48:27.281Z,4.20
2023-07-31T08:49:27.233Z,3.30
2023-07-31T08:50:27.218Z,5.00
2023-07-31T08:51:27.200Z,4.20
2023-07-31T08:52:27.212Z,4.10
2023-07-31T08:53:27.191Z,4.20
2023-07-31T08:54:27.184Z,4.40
2023-07-31T08:55:27.153Z,3.80
2023-07-31T08:56:27.135Z,3.30
2023-07-31T08:57:27.156Z,5.10
2023-07-31T08:58:27.125Z,5.00
2023-07-31T08:59:27.115Z,4.50
2023-07-31T09:00:27.077Z,4.50
2023-07-31T09:01:27.123Z,3.20
2023-07-31T09:02:27.117Z,3.40
2023-07-31T09:03:27.202Z,4.20
2023-07-31T09:04:27.038Z,4.90
2023-07-31T09:05:27.003Z,4.20
2023-07-31T09:06:27.006Z,4.00
2023-07-31T09:07:27.049Z,4.10
2023-07-31T09:08:26.987Z,3.80
2023-07-31T09:09:27.036Z,5.20
2023-07-31T09:10:26.947Z,4.90
2023-07-31T09:11:26.945Z,5.20
2023-07-31T09:12:26.938Z,4.10
2023-07-31T09:13:26.925Z,4.70
2023-07-31T09:14:26.928Z,4.80
2023-07-31T09:15:36.807Z,5.40
2023-07-31T09:16:26.908Z,4.90
2023-07-31T09:17:26.997Z,6.00
2023-07-31T09:18:26.856Z,5.50
2023-07-31T09:19:26.859Z,5.80
2023-07-31T09:20:26.840Z,6.10
2023-07-31T09:21:26.899Z,6.00
2023-07-31T09:22:26.828Z,6.00
2023-07-31T09:23:26.792Z,6.60
2023-07-31T09:24:26.816Z,7.20
2023-07-31T09:25:26.797Z,8.40
2023-07-31T09:26:26.827Z,7.00
2023-07-31T09:27:26.759Z,8.30
2023-07-31T09:28:28.837Z,8.70
2023-07-31T09:29:26.758Z,9.40
2023-07-31T09:30:26.824Z,8.90
2023-07-31T09:31:26.737Z,9.20
2023-07-31T09:32:26.739Z,12.70
2023-07-31T09:33:26.719Z,9.90
2023-07-31T09:34:26.694Z,13.10
2023-07-31T09:35:26.668Z,11.10
2023-07-31T09:36:27.318Z,10.50
2023-07-31T09:37:26.635Z,13.40
2023-07-31T09:38:26.659Z,17.10
2023-07-31T09:39:26.621Z,12.80
2023-07-31T09:40:26.618Z,14.10
2023-07-31T09:41:26.598Z,14.70
2023-07-31T09:42:26.603Z,14.30
2023-07-31T09:43:26.598Z,13.00
2023-07-31T09:44:26.582Z,11.40
2023-07-31T09:45:32.149Z,15.40
2023-07-31T09:46:26.638Z,14.50
2023-07-31T09:47:27.041Z,15.80
2023-07-31T09:48:26.544Z,13.80
2023-07-31T09:49:26.536Z,18.10
2023-07-31T09:50:26.515Z,18.00
2023-07-31T09:51:26.532Z,15.90
2023-07-31T09:52:26.491Z,28.10
2023-07-31T09:53:26.498Z,16.60
2023-07-31T09:54:26.464Z,18.20
2023-07-31T09:55:26.436Z,17.90
2023-07-31T09:56:26.477Z,20.10
2023-07-31T09:57:26.437Z,21.00
2023-07-31T09:58:26.435Z,18.80
2023-07-31T09:59:26.420Z,25.80
2023-07-31T10:00:26.405Z,20.10
2023-07-31T10:01:26.465Z,17.10
2023-07-31T10:02:26.403Z,20.70
2023-07-31T10:03:26.501Z,23.50
2023-07-31T10:04:26.366Z,17.70
2023-07-31T10:05:26.331Z,20.70
2023-07-31T10:06:26.334Z,17.80
2023-07-31T10:07:26.338Z,19.50
2023-07-31T10:08:26.342Z,20.30
2023-07-31T10:09:26.295Z,24.50
2023-07-31T10:10:27.805Z,25.90
2023-07-31T10:11:26.299Z,21.10
2023-07-31T10:12:26.274Z,29.90
2023-07-31T10:13:26.276Z,22.50
2023-07-31T10:14:26.249Z,23.10
2023-07-31T10:15:26.243Z,24.00
2023-07-31T10:16:26.235Z,23.20
2023-07-31T10:17:26.242Z,21.60
2023-07-31T10:18:26.222Z,24.40
2023-07-31T10:19:26.199Z,31.20
2023-07-31T10:20:26.183Z,20.30
2023-07-31T10:21:26.180Z,22.90
2023-07-31T10:22:26.160Z,19.90
2023-07-31T10:23:26.151Z,19.30
2023-07-31T10:24:26.204Z,20.10
2023-07-31T10:25:26.159Z,18.00
2023-07-31T10:26:26.122Z,18.30
2023-07-31T10:27:26.118Z,22.90
2023-07-31T10:28:26.252Z,20.00
2023-07-31T10:29:26.074Z,19.20
2023-07-31T10:30:26.114Z,18.70
2023-07-31T10:31:26.098Z,17.60
2023-07-31T10:32:26.085Z,17.40
2023-07-31T10:33:26.061Z,14.60
2023-07-31T10:34:26.036Z,13.30
2023-07-31T10:35:26.112Z,18.90
2023-07-31T10:36:26.180Z,16.00
2023-07-31T10:37:26.048Z,18.70
2023-07-31T10:38:26.001Z,14.90
2023-07-31T10:39:26.007Z,13.80
2023-07-31T10:40:25.983Z,12.40
2023-07-31T10:41:25.978Z,9.40
2023-07-31T10:42:25.958Z,6.10
2023-07-31T10:43:25.937Z,8.90
2023-07-31T10:44:25.939Z,5.90
2023-07-31T10:45:25.944Z,5.90
2023-07-31T10:46:25.992Z,5.90
2023-07-31T10:47:25.999Z,8.00
2023-07-31T10:48:25.898Z,7.20
2023-07-31T10:49:25.896Z,5.20
2023-07-31T10:50:25.866Z,5.20
2023-07-31T10:51:25.852Z,6.00
2023-07-31T10:52:27.790Z,6.20
2023-07-31T10:53:25.856Z,7.00
2023-07-31T10:54:25.812Z,7.10
2023-07-31T10:55:25.788Z,7.30
2023-07-31T10:56:25.790Z,6.70
2023-07-31T10:57:25.790Z,5.10
2023-07-31T10:58:25.787Z,4.20
2023-07-31T10:59:25.768Z,5.20
2023-07-31T11:00:25.746Z,4.20
2023-07-31T11:01:25.765Z,5.70
2023-07-31T11:02:25.806Z,4.10
2023-07-31T11:03:25.868Z,4.00
2023-07-31T11:04:25.720Z,4.00
2023-07-31T11:05:25.674Z,4.10
2023-07-31T11:06:25.691Z,5.00
2023-07-31T11:07:25.710Z,3.60
2023-07-31T11:08:25.664Z,5.40
2023-07-31T11:09:25.645Z,3.90
2023-07-31T11:10:25.626Z,4.40
2023-07-31T11:11:25.610Z,3.60
2023-07-31T11:12:25.620Z,4.50
2023-07-31T11:13:25.627Z,3.90
2023-07-31T11:14:25.611Z,4.80
2023-07-31T11:15:25.564Z,5.40
2023-07-31T11:16:25.694Z,4.30
2023-07-31T11:17:25.568Z,4.40
2023-07-31T11:18:25.538Z,5.60
2023-07-31T11:19:25.610Z,5.00
2023-07-31T11:20:25.527Z,4.00
2023-07-31T11:21:25.588Z,4.20
2023-07-31T11:22:25.495Z,4.90
2023-07-31T11:23:25.509Z,4.70
2023-07-31T11:24:25.500Z,5.10
2023-07-31T11:25:25.490Z,4.00
2023-07-31T11:26:25.456Z,3.10
2023-07-31T11:27:25.426Z,5.50
2023-07-31T11:28:25.505Z,4.20
2023-07-31T11:29:25.469Z,4.40
2023-07-31T11:30:25.438Z,5.60
2023-07-31T11:31:25.476Z,6.40
2023-07-31T11:32:25.382Z,5.60
2023-07-31T11:33:25.386Z,6.00
2023-07-31T11:34:25.361Z,5.70
2023-07-31T11:35:25.322Z,6.00
2023-07-31T11:36:25.341Z,6.40
2023-07-31T11:37:25.311Z,5.20
2023-07-31T11:38:25.338Z,7.60
2023-07-31T11:39:25.357Z,7.70
2023-07-31T11:40:29.594Z,7.90
2023-07-31T11:41:25.298Z,6.30
2023-07-31T11:42:25.269Z,9.50
2023-07-31T11:43:25.245Z,9.90
2023-07-31T11:44:27.878Z,9.20
2023-07-31T11:45:25.219Z,8.80
2023-07-31T11:46:25.265Z,10.00
2023-07-31T11:47:25.305Z,9.50
2023-07-31T11:48:25.221Z,8.90
2023-07-31T11:49:25.183Z,9.40
2023-07-31T11:50:25.179Z,10.80
2023-07-31T11:51:25.156Z,9.40
2023-07-31T11:52:25.153Z,9.00
2023-07-31T11:53:25.143Z,9.00
2023-07-31T11:54:25.174Z,8.80
2023-07-31T11:55:25.108Z,9.10
2023-07-31T11:56:25.106Z,7.50
2023-07-31T11:57:25.080Z,4.80
2023-07-31T11:58:25.094Z,4.90
2023-07-31T11:59:25.065Z,5.60
2023-07-31T12:00:25.048Z,4.50
2023-07-31T12:01:25.039Z,4.10
2023-07-31T12:02:25.033Z,5.10
2023-07-31T12:03:25.102Z,6.00
2023-07-31T12:04:25.125Z,5.90
2023-07-31T12:05:25.002Z,4.00
2023-07-31T12:06:24.981Z,6.30
2023-07-31T12:07:24.958Z,4.00
2023-07-31T12:08:24.969Z,5.10
2023-07-31T12:09:24.944Z,4.80
2023-07-31T12:10:24.929Z,5.10
2023-07-31T12:11:24.915Z,5.50
2023-07-31T12:12:24.910Z,5.60
2023-07-31T12:13:24.909Z,4.80
2023-07-31T12:14:24.924Z,4.80
2023-07-31T12:15:24.861Z,6.40
2023-07-31T12:16:24.922Z,4.50
2023-07-31T12:17:24.822Z,4.30
2023-07-31T12:18:24.845Z,4.40
2023-07-31T12:19:24.868Z,5.20
2023-07-31T12:20:24.804Z,3.50
2023-07-31T12:21:24.793Z,3.80
2023-07-31T12:22:24.790Z,5.10
2023-07-31T12:23:24.776Z,4.80
2023-07-31T12:24:24.762Z,3.80
2023-07-31T12:25:24.730Z,4.10
2023-07-31T12:26:24.733Z,4.80
2023-07-31T12:27:24.708Z,4.40
2023-07-31T12:28:24.754Z,5.00
2023-07-31T12:29:24.691Z,4.30
2023-07-31T12:30:24.672Z,3.50
2023-07-31T12:31:24.896Z,4.20
2023-07-31T12:32:24.740Z,5.30
2023-07-31T12:33:24.644Z,4.10
2023-07-31T12:34:24.652Z,4.70
2023-07-31T12:35:24.616Z,3.80
2023-07-31T12:36:24.618Z,3.60
2023-07-31T12:37:24.576Z,4.10
2023-07-31T12:38:24.576Z,4.40
2023-07-31T12:39:24.556Z,4.20
2023-07-31T12:40:32.498Z,5.20
2023-07-31T12:41:24.548Z,3.80
2023-07-31T12:42:24.536Z,5.20
2023-07-31T12:43:24.505Z,4.00
2023-07-31T12:44:24.504Z,9.20
2023-07-31T12:45:24.528Z,5.10
2023-07-31T12:46:24.508Z,3.20
2023-07-31T12:47:24.522Z,5.50
2023-07-31T12:48:24.466Z,4.00
2023-07-31T12:49:24.431Z,4.00
2023-07-31T12:50:24.448Z,3.80
2023-07-31T12:51:24.397Z,4.40
2023-07-31T12:52:24.408Z,8.60
2023-07-31T12:53:24.374Z,4.50
2023-07-31T12:54:24.371Z,8.10
2023-07-31T12:55:24.358Z,5.70
2023-07-31T12:56:24.362Z,5.00
2023-07-31T12:57:24.337Z,9.40
2023-07-31T12:58:24.323Z,7.70
2023-07-31T12:59:24.295Z,7.00
2023-07-31T13:00:24.288Z,4.90
2023-07-31T13:01:24.321Z,5.10
2023-07-31T13:02:26.597Z,4.80
2023-07-31T13:03:24.407Z,7.80
2023-07-31T13:04:24.259Z,3.80
2023-07-31T13:05:24.224Z,4.60
2023-07-31T13:06:24.206Z,3.90
2023-07-31T13:07:24.206Z,4.30
2023-07-31T13:08:24.187Z,5.50
2023-07-31T13:09:24.225Z,8.30
2023-07-31T13:10:24.220Z,5.80
2023-07-31T13:11:24.160Z,4.60
2023-07-31T13:12:24.140Z,6.70
2023-07-31T13:13:24.110Z,4.50
2023-07-31T13:14:24.119Z,4.70
2023-07-31T13:15:24.081Z,3.80
2023-07-31T13:16:24.135Z,6.20